createdAt,value
2019-02-10T00:02:07.743Z,8.63
2019-02-10T00:04:38.451Z,8.54
2019-02-10T00:07:08.980Z,8.38
2019-02-10T00:09:39.640Z,8.55
2019-02-10T00:12:10.275Z,8.57
2019-02-10T00:14:40.997Z,8.60
2019-02-10T00:17:13.131Z,8.61
2019-02-10T00:19:43.830Z,8.36
2019-02-10T00:22:14.413Z,8.43
2019-02-10T00:24:45.168Z,8.32
2019-02-10T00:27:15.927Z,8.32
2019-02-10T00:29:56.166Z,8.21
2019-02-10T00:32:29.252Z,8.34
2019-02-10T00:34:59.860Z,8.20
2019-02-10T00:37:30.085Z,8.26
2019-02-10T00:40:00.767Z,8.36
2019-02-10T00:42:34.444Z,8.32
2019-02-10T00:45:07.976Z,8.21
2019-02-10T00:47:38.677Z,8.26
2019-02-10T00:50:09.237Z,8.26
2019-02-10T00:52:39.835Z,8.24
2019-02-10T00:55:10.458Z,8.14
2019-02-10T00:57:41.095Z,8.14
2019-02-10T01:00:11.367Z,8.22
2019-02-10T01:02:42.148Z,8.26
2019-02-10T01:05:15.340Z,8.04
2019-02-10T01:07:46.004Z,8.08
2019-02-10T01:10:17.258Z,8.20
2019-02-10T01:12:48.023Z,7.97
2019-02-10T01:15:18.713Z,8.23
2019-02-10T01:17:49.423Z,7.96
2019-02-10T01:20:20.040Z,8.04
2019-02-10T01:22:52.346Z,7.92
2019-02-10T01:25:23.148Z,7.80
2019-02-10T01:27:53.701Z,7.66
2019-02-10T01:30:23.996Z,7.57
2019-02-10T01:32:54.645Z,7.60
2019-02-10T01:35:26.866Z,7.58
2019-02-10T01:37:57.447Z,7.48
2019-02-10T01:40:27.967Z,7.52
2019-02-10T01:42:58.604Z,7.52
2019-02-10T01:45:29.253Z,7.48
2019-02-10T01:47:59.537Z,7.44
2019-02-10T01:50:30.089Z,7.47
2019-02-10T01:53:00.629Z,7.54
2019-02-10T01:55:32.926Z,7.42
2019-02-10T01:58:03.469Z,7.40
2019-02-10T02:00:34.053Z,7.38
2019-02-10T02:03:04.877Z,7.27
2019-02-10T02:05:35.419Z,7.26
2019-02-10T02:08:05.723Z,7.24
2019-02-10T02:10:36.751Z,7.28
2019-02-10T02:13:07.523Z,7.22
2019-02-10T02:15:39.774Z,7.18
2019-02-10T02:18:10.412Z,7.22
2019-02-10T02:20:42.582Z,7.20
2019-02-10T02:23:13.217Z,7.18
2019-02-10T02:25:43.932Z,7.24
2019-02-10T02:28:14.488Z,7.15
2019-02-10T02:30:45.120Z,7.12
2019-02-10T02:33:15.747Z,7.04
2019-02-10T02:35:46.390Z,7.17
2019-02-10T02:38:17.021Z,7.05
2019-02-10T02:40:47.632Z,6.90
2019-02-10T02:43:18.350Z,6.98
2019-02-10T02:45:48.550Z,6.98
2019-02-10T02:48:20.704Z,6.86
2019-02-10T02:50:52.832Z,6.95
2019-02-10T02:53:23.605Z,6.94
2019-02-10T02:55:54.209Z,7.04
2019-02-10T02:58:24.917Z,6.96
2019-02-10T03:00:55.541Z,6.94
2019-02-10T03:03:26.229Z,6.94
2019-02-10T03:05:56.965Z,7.08
2019-02-10T03:08:27.546Z,6.82
2019-02-10T03:10:58.180Z,6.80
2019-02-10T03:13:28.812Z,6.92
2019-02-10T03:15:59.430Z,6.88
2019-02-10T03:18:30.059Z,6.88
2019-02-10T03:21:00.696Z,6.84
2019-02-10T03:23:31.235Z,6.82
2019-02-10T03:26:01.865Z,6.82
2019-02-10T03:28:32.494Z,6.84
2019-02-10T03:31:03.013Z,6.83
2019-02-10T03:33:35.998Z,6.84
2019-02-10T03:36:06.291Z,6.84
2019-02-10T03:38:36.868Z,6.82
2019-02-10T03:41:07.358Z,6.69
2019-02-10T03:43:38.189Z,6.66
2019-02-10T03:46:08.800Z,6.71
2019-02-10T03:48:39.517Z,6.48
2019-02-10T03:51:13.031Z,6.70
2019-02-10T03:53:43.622Z,6.54
2019-02-10T03:56:14.151Z,6.61
2019-02-10T03:58:44.759Z,6.56
2019-02-10T04:01:15.316Z,6.63
2019-02-10T04:03:45.603Z,6.61
2019-02-10T04:06:16.063Z,6.64
2019-02-10T04:08:46.715Z,6.54
2019-02-10T04:11:17.228Z,6.48
2019-02-10T04:13:47.859Z,6.62
2019-02-10T04:16:18.130Z,6.51
2019-02-10T04:18:49.233Z,6.51
2019-02-10T04:21:19.792Z,6.53
2019-02-10T04:23:50.397Z,6.56
2019-02-10T04:26:22.252Z,6.54
2019-02-10T04:28:52.905Z,6.49
2019-02-10T04:31:23.514Z,6.50
2019-02-10T04:33:54.291Z,6.50
2019-02-10T04:36:24.892Z,6.51
2019-02-10T04:38:55.606Z,6.46
2019-02-10T04:41:28.986Z,6.45
2019-02-10T04:43:59.667Z,6.41
2019-02-10T04:46:30.195Z,6.42
2019-02-10T04:49:00.800Z,6.45
2019-02-10T04:51:31.328Z,6.45
2019-02-10T04:54:01.866Z,6.23
2019-02-10T04:56:32.513Z,6.44
2019-02-10T04:59:03.153Z,6.34
2019-02-10T05:01:35.497Z,6.40
2019-02-10T05:04:07.824Z,6.34
2019-02-10T05:06:38.503Z,6.32
2019-02-10T05:09:10.283Z,6.36
2019-02-10T05:11:40.893Z,6.23
2019-02-10T05:14:11.564Z,6.46
2019-02-10T05:16:42.206Z,6.42
2019-02-10T05:19:12.915Z,6.41
2019-02-10T05:21:43.554Z,6.48
2019-02-10T05:24:13.872Z,6.47
2019-02-10T05:26:44.064Z,6.51
2019-02-10T05:29:16.454Z,6.48
2019-02-10T05:31:46.702Z,6.54
2019-02-10T05:34:17.406Z,6.47
2019-02-10T05:36:48.054Z,6.54
2019-02-10T05:39:18.690Z,6.59
2019-02-10T05:41:49.316Z,6.48
2019-02-10T05:44:19.966Z,6.46
2019-02-10T05:46:50.232Z,6.33
2019-02-10T05:49:20.808Z,6.50
2019-02-10T05:51:51.436Z,6.54
2019-02-10T05:54:22.062Z,6.63
2019-02-10T05:56:52.606Z,6.50
2019-02-10T05:59:23.323Z,6.55
2019-02-10T06:02:03.077Z,6.64
2019-02-10T06:04:40.060Z,6.77
2019-02-10T06:07:13.804Z,6.72
2019-02-10T06:09:44.385Z,6.74
2019-02-10T06:12:14.672Z,6.66
2019-02-10T06:14:45.471Z,6.68
2019-02-10T06:17:16.085Z,6.66
2019-02-10T06:19:46.717Z,6.80
2019-02-10T06:22:17.235Z,6.88
2019-02-10T06:24:47.860Z,6.89
2019-02-10T06:27:18.486Z,6.72
2019-02-10T06:29:49.221Z,6.84
2019-02-10T06:32:19.853Z,6.75
2019-02-10T06:34:51.134Z,6.82
2019-02-10T06:37:21.850Z,6.70
2019-02-10T06:39:52.060Z,6.70
2019-02-10T06:42:22.596Z,6.78
2019-02-10T06:44:53.124Z,6.68
2019-02-10T06:47:23.743Z,6.76
2019-02-10T06:49:54.378Z,6.90
2019-02-10T06:52:27.045Z,6.76
2019-02-10T06:54:57.581Z,6.86
2019-02-10T06:57:28.128Z,6.88
2019-02-10T07:00:03.275Z,6.92
2019-02-10T07:02:38.513Z,6.76
2019-02-10T07:05:11.201Z,6.93
2019-02-10T07:07:41.716Z,6.92
2019-02-10T07:10:12.354Z,7.00
2019-02-10T07:12:47.183Z,6.68
2019-02-10T07:15:54.203Z,7.09
2019-02-10T07:19:01.364Z,6.91
2019-02-10T07:21:34.131Z,7.10
2019-02-10T07:24:24.623Z,7.02
2019-02-10T07:26:57.221Z,7.07
2019-02-10T07:29:36.769Z,7.00
2019-02-10T07:32:08.932Z,7.02
2019-02-10T07:34:48.026Z,7.08
2019-02-10T07:37:32.703Z,7.18
2019-02-10T07:40:33.455Z,7.08
2019-02-10T07:43:10.233Z,7.02
2019-02-10T07:45:50.077Z,7.15
2019-02-10T07:48:29.846Z,7.10
2019-02-10T07:51:20.980Z,7.20
2019-02-10T07:54:09.478Z,7.05
2019-02-10T07:56:58.131Z,7.24
2019-02-10T07:59:32.041Z,7.32
2019-02-10T08:02:08.416Z,7.12
2019-02-10T08:05:03.329Z,7.27
2019-02-10T08:07:39.993Z,7.56
2019-02-10T08:10:22.694Z,7.64
2019-02-10T08:12:56.501Z,8.02
2019-02-10T08:15:36.629Z,7.70
2019-02-10T08:18:20.957Z,7.78
2019-02-10T08:20:57.602Z,7.82
2019-02-10T08:23:36.809Z,7.48
2019-02-10T08:26:10.627Z,7.60
2019-02-10T08:29:02.638Z,7.56
2019-02-10T08:32:10.995Z,7.52
2019-02-10T08:35:01.265Z,7.39
2019-02-10T08:38:02.105Z,7.34
2019-02-10T08:40:53.320Z,7.47
2019-02-10T08:43:41.876Z,7.34
2019-02-10T08:46:21.051Z,7.40
2019-02-10T08:49:13.341Z,7.28
2019-02-10T08:51:55.883Z,7.32
2019-02-10T08:54:31.021Z,7.18
2019-02-10T08:57:01.525Z,7.22
2019-02-10T08:59:32.777Z,7.22
2019-02-10T09:02:02.983Z,7.15
2019-02-10T09:04:33.640Z,7.18
2019-02-10T09:07:04.371Z,7.20
2019-02-10T09:09:35.096Z,7.10
2019-02-10T09:12:05.938Z,7.08
2019-02-10T09:14:36.578Z,7.11
2019-02-10T09:17:07.188Z,7.00
2019-02-10T09:19:37.763Z,6.92
2019-02-10T09:22:08.414Z,7.14
2019-02-10T09:24:39.350Z,7.06
2019-02-10T09:27:09.833Z,7.08
2019-02-10T09:29:40.160Z,7.04
2019-02-10T09:32:13.278Z,6.91
2019-02-10T09:34:43.965Z,7.02
2019-02-10T09:37:14.232Z,6.84
2019-02-10T09:39:44.921Z,6.91
2019-02-10T09:42:15.444Z,6.86
2019-02-10T09:44:46.230Z,6.88
2019-02-10T09:47:17.483Z,7.03
2019-02-10T09:49:48.166Z,6.96
2019-02-10T09:52:18.686Z,6.92
2019-02-10T09:54:49.353Z,6.82
2019-02-10T09:57:19.890Z,6.82
2019-02-10T09:59:50.130Z,6.83
2019-02-10T10:02:20.805Z,6.66
2019-02-10T10:04:51.350Z,6.88
2019-02-10T10:07:21.881Z,6.82
2019-02-10T10:09:54.200Z,6.65
2019-02-10T10:12:24.942Z,6.62
2019-02-10T10:14:55.519Z,6.74
2019-02-10T10:17:28.311Z,6.89
2019-02-10T10:19:58.836Z,6.66
2019-02-10T10:22:33.643Z,6.62
2019-02-10T10:25:03.577Z,6.76
2019-02-10T10:27:34.645Z,6.88
2019-02-10T10:30:10.978Z,6.76
2019-02-10T10:32:41.230Z,6.79
2019-02-10T10:35:11.843Z,6.64
2019-02-10T10:37:42.678Z,6.76
2019-02-10T10:40:17.929Z,6.72
2019-02-10T10:42:50.961Z,6.58
2019-02-10T10:45:21.748Z,6.54
2019-02-10T10:47:52.360Z,6.98
2019-02-10T10:50:22.997Z,6.62
2019-02-10T10:52:53.620Z,6.91
2019-02-10T10:55:24.758Z,6.76
2019-02-10T10:57:55.318Z,6.69
2019-02-10T11:00:26.035Z,6.72
2019-02-10T11:02:57.477Z,6.92
2019-02-10T11:05:28.269Z,6.98
2019-02-10T11:08:00.587Z,6.84
2019-02-10T11:10:33.812Z,6.84
2019-02-10T11:13:04.070Z,6.82
2019-02-10T11:15:35.228Z,6.98
2019-02-10T11:18:07.416Z,7.10
2019-02-10T11:20:37.983Z,7.04
2019-02-10T11:23:10.798Z,7.12
2019-02-10T11:25:41.456Z,7.12
2019-02-10T11:28:12.244Z,7.29
2019-02-10T11:30:42.928Z,7.24
2019-02-10T11:33:13.525Z,7.36
2019-02-10T11:35:45.825Z,7.34
2019-02-10T11:38:16.086Z,7.26
2019-02-10T11:40:47.050Z,7.15
2019-02-10T11:43:17.656Z,7.49
2019-02-10T11:45:48.259Z,7.55
2019-02-10T11:48:18.776Z,7.56
2019-02-10T11:50:49.326Z,7.56
2019-02-10T11:53:19.971Z,7.61
2019-02-10T11:55:51.006Z,7.50
2019-02-10T11:58:21.665Z,7.64
2019-02-10T12:00:53.517Z,7.82
2019-02-10T12:03:24.217Z,7.70
2019-02-10T12:05:54.857Z,7.54
2019-02-10T12:08:34.994Z,7.74
2019-02-10T12:10:57.938Z,7.82
2019-02-10T12:13:30.427Z,7.79
2019-02-10T12:16:01.075Z,7.80
2019-02-10T12:18:31.811Z,7.86
2019-02-10T12:21:02.103Z,7.70
2019-02-10T12:23:32.822Z,7.78
2019-02-10T12:26:03.481Z,7.86
2019-02-10T12:28:35.850Z,7.93
2019-02-10T12:31:06.896Z,7.84
2019-02-10T12:33:37.087Z,7.88
2019-02-10T12:36:09.110Z,7.83
2019-02-10T12:38:40.452Z,7.82
2019-02-10T12:41:10.823Z,7.87
2019-02-10T12:43:41.513Z,8.02
2019-02-10T12:46:12.240Z,7.94
2019-02-10T12:48:46.165Z,7.96
2019-02-10T12:51:16.766Z,7.88
2019-02-10T12:53:47.319Z,7.86
2019-02-10T12:56:17.689Z,7.98
2019-02-10T12:58:51.152Z,7.86
2019-02-10T13:01:21.771Z,7.89
2019-02-10T13:03:52.067Z,7.86
2019-02-10T13:06:24.259Z,8.04
2019-02-10T13:08:54.905Z,8.08
2019-02-10T13:11:25.636Z,7.93
2019-02-10T13:13:56.396Z,8.01
2019-02-10T13:16:27.207Z,8.01
2019-02-10T13:19:04.788Z,8.00
2019-02-10T13:21:35.536Z,7.96
2019-02-10T13:24:06.683Z,7.90
2019-02-10T13:26:39.055Z,8.04
2019-02-10T13:29:12.785Z,8.12
2019-02-10T13:31:45.163Z,8.11
2019-02-10T13:34:17.387Z,8.26
2019-02-10T13:36:48.132Z,8.39
2019-02-10T13:39:18.406Z,8.23
2019-02-10T13:41:48.324Z,8.22
2019-02-10T13:44:22.092Z,8.20
2019-02-10T13:46:52.404Z,8.26
2019-02-10T13:49:23.035Z,8.34
2019-02-10T13:51:55.305Z,8.18
2019-02-10T13:54:25.902Z,8.35
2019-02-10T13:56:57.107Z,8.36
2019-02-10T13:59:27.819Z,8.18
2019-02-10T14:01:58.491Z,8.12
2019-02-10T14:04:30.827Z,8.22
2019-02-10T14:07:02.130Z,8.29
2019-02-10T14:09:32.816Z,8.14
2019-02-10T14:12:03.439Z,8.16
2019-02-10T14:14:34.047Z,8.17
2019-02-10T14:17:04.355Z,8.14
2019-02-10T14:19:34.903Z,8.14
2019-02-10T14:22:07.012Z,8.26
2019-02-10T14:24:37.693Z,8.18
2019-02-10T14:27:10.069Z,8.14
2019-02-10T14:29:40.700Z,8.16
2019-02-10T14:32:10.940Z,8.30
2019-02-10T14:34:43.131Z,8.50
2019-02-10T14:37:13.457Z,8.26
2019-02-10T14:39:44.047Z,8.32
2019-02-10T14:42:14.585Z,8.36
2019-02-10T14:44:45.318Z,8.33
2019-02-10T14:47:17.613Z,8.36
2019-02-10T14:49:48.356Z,8.25
2019-02-10T14:52:20.495Z,8.27
2019-02-10T14:54:56.993Z,8.28
2019-02-10T14:57:27.742Z,8.20
2019-02-10T14:59:59.582Z,8.12
2019-02-10T15:02:30.303Z,8.20
2019-02-10T15:05:02.195Z,8.21
2019-02-10T15:07:35.520Z,8.09
2019-02-10T15:10:08.500Z,8.16
2019-02-10T15:12:39.198Z,8.07
2019-02-10T15:15:11.278Z,8.26
2019-02-10T15:17:54.764Z,8.19
2019-02-10T15:20:15.431Z,8.24
2019-02-10T15:22:48.773Z,8.08
2019-02-10T15:25:19.524Z,8.26
2019-02-10T15:27:50.285Z,8.09
2019-02-10T15:30:20.965Z,8.12
2019-02-10T15:32:51.591Z,8.18
2019-02-10T15:35:22.715Z,8.18
2019-02-10T15:37:55.119Z,8.16
2019-02-10T15:40:27.595Z,8.20
2019-02-10T15:42:58.462Z,8.18
2019-02-10T15:45:30.839Z,8.20
2019-02-10T15:48:01.424Z,8.10
2019-02-10T15:50:33.683Z,8.03
2019-02-10T15:53:04.349Z,8.14
2019-02-10T15:55:34.629Z,8.12
2019-02-10T15:58:05.364Z,8.16
2019-02-10T16:00:36.199Z,8.05
2019-02-10T16:03:08.316Z,8.02
2019-02-10T16:05:39.332Z,8.05
2019-02-10T16:08:09.944Z,8.04
2019-02-10T16:10:41.144Z,8.15
2019-02-10T16:13:12.443Z,8.19
2019-02-10T16:15:44.349Z,8.16
2019-02-10T16:18:14.997Z,8.12
2019-02-10T16:20:47.229Z,8.24
2019-02-10T16:23:19.493Z,8.26
2019-02-10T16:25:50.128Z,8.18
2019-02-10T16:28:30.705Z,8.20
2019-02-10T16:31:01.477Z,8.20
2019-02-10T16:33:32.419Z,8.08
2019-02-10T16:36:05.651Z,8.16
2019-02-10T16:38:36.516Z,8.11
2019-02-10T16:41:08.303Z,8.08
2019-02-10T16:43:39.013Z,8.26
2019-02-10T16:46:12.095Z,8.30
2019-02-10T16:48:46.109Z,8.51
2019-02-10T16:51:16.398Z,8.28
2019-02-10T16:53:48.624Z,8.48
2019-02-10T16:56:20.873Z,8.73
2019-02-10T16:58:59.049Z,8.52
2019-02-10T17:01:31.741Z,8.46
2019-02-10T17:04:02.506Z,8.46
2019-02-10T17:06:34.723Z,8.43
2019-02-10T17:09:06.112Z,8.41
2019-02-10T17:11:36.861Z,8.47
2019-02-10T17:14:07.668Z,8.50
2019-02-10T17:16:40.041Z,8.40
2019-02-10T17:19:10.693Z,8.46
2019-02-10T17:21:41.399Z,8.38
2019-02-10T17:24:13.246Z,8.55
2019-02-10T17:26:45.236Z,8.61
2019-02-10T17:29:15.991Z,8.65
2019-02-10T17:31:47.846Z,8.64
2019-02-10T17:34:18.453Z,8.69
2019-02-10T17:36:49.003Z,8.68
2019-02-10T17:39:21.202Z,8.69
2019-02-10T17:41:52.507Z,8.74
2019-02-10T17:44:23.241Z,8.65
2019-02-10T17:46:53.897Z,8.75
2019-02-10T17:49:25.219Z,8.79
2019-02-10T17:51:56.272Z,8.78
2019-02-10T17:54:27.669Z,8.87
2019-02-10T17:56:58.639Z,8.71
2019-02-10T17:59:34.060Z,8.74
2019-02-10T18:02:04.752Z,9.00
2019-02-10T18:04:37.601Z,8.98
2019-02-10T18:07:07.583Z,8.88
2019-02-10T18:09:39.638Z,8.75
2019-02-10T18:12:13.747Z,8.75
2019-02-10T18:15:04.312Z,8.74
2019-02-10T18:17:57.276Z,8.72
2019-02-10T18:20:41.211Z,8.79
2019-02-10T18:23:29.952Z,8.90
2019-02-10T18:26:02.279Z,9.19
2019-02-10T18:28:46.552Z,9.27
2019-02-10T18:31:21.536Z,9.05
2019-02-10T18:33:55.099Z,9.06
2019-02-10T18:36:31.315Z,9.33
2019-02-10T18:39:09.286Z,9.31
2019-02-10T18:41:47.275Z,9.14
2019-02-10T18:44:19.555Z,9.10
2019-02-10T18:46:52.017Z,9.08
2019-02-10T18:49:40.607Z,9.15
2019-02-10T18:52:25.117Z,8.98
2019-02-10T18:55:00.247Z,9.05
2019-02-10T18:57:48.852Z,8.97
2019-02-10T19:00:37.955Z,8.96
2019-02-10T19:03:14.197Z,8.96
2019-02-10T19:05:46.436Z,8.76
2019-02-10T19:08:30.871Z,9.08
2019-02-10T19:11:03.186Z,9.02
2019-02-10T19:13:45.990Z,8.96
2019-02-10T19:16:18.358Z,9.03
2019-02-10T19:18:53.670Z,9.08
2019-02-10T19:21:27.094Z,8.97
2019-02-10T19:24:02.576Z,9.00
2019-02-10T19:26:37.897Z,8.97
2019-02-10T19:29:16.265Z,8.95
2019-02-10T19:32:07.041Z,8.90
2019-02-10T19:34:55.897Z,9.14
2019-02-10T19:37:32.128Z,8.95
2019-02-10T19:40:16.819Z,9.08
2019-02-10T19:43:05.764Z,9.04
2019-02-10T19:45:38.118Z,8.98
2019-02-10T19:48:13.222Z,8.95
2019-02-10T19:50:45.633Z,9.03
2019-02-10T19:53:20.544Z,9.50
2019-02-10T19:55:55.573Z,9.65
2019-02-10T19:58:30.545Z,9.52
2019-02-10T20:01:15.311Z,9.16
2019-02-10T20:04:05.506Z,9.00
2019-02-10T20:06:37.865Z,9.08
2019-02-10T20:09:09.828Z,9.07
2019-02-10T20:12:03.976Z,9.14
2019-02-10T20:14:32.829Z,9.05
2019-02-10T20:17:08.134Z,8.73
2019-02-10T20:19:42.167Z,8.96
2019-02-10T20:22:17.509Z,8.76
2019-02-10T20:24:52.226Z,8.66
2019-02-10T20:27:39.667Z,8.66
2019-02-10T20:30:30.378Z,8.77
2019-02-10T20:33:19.219Z,8.77
2019-02-10T20:36:06.695Z,8.79
2019-02-10T20:38:55.279Z,8.87
2019-02-10T20:41:36.453Z,8.86
2019-02-10T20:44:25.104Z,9.00
2019-02-10T20:46:59.698Z,9.16
2019-02-10T20:49:32.044Z,8.94
2019-02-10T20:52:20.834Z,9.04
2019-02-10T20:55:02.480Z,8.88
2019-02-10T20:57:52.656Z,9.00
2019-02-10T21:00:31.350Z,8.99
2019-02-10T21:03:20.012Z,8.78
2019-02-10T21:05:58.483Z,8.97
2019-02-10T21:08:30.712Z,8.98
2019-02-10T21:11:05.646Z,8.91
2019-02-10T21:13:40.899Z,9.00
2019-02-10T21:16:29.544Z,8.98
2019-02-10T21:19:04.459Z,9.20
2019-02-10T21:21:38.440Z,9.15
2019-02-10T21:24:10.760Z,9.06
2019-02-10T21:26:43.155Z,9.14
2019-02-10T21:29:18.359Z,9.07
2019-02-10T21:31:53.664Z,9.18
2019-02-10T21:34:26.824Z,9.18
2019-02-10T21:36:59.165Z,8.90
2019-02-10T21:39:46.438Z,9.06
2019-02-10T21:42:18.760Z,8.99
2019-02-10T21:44:51.712Z,9.02
2019-02-10T21:47:32.497Z,8.86
2019-02-10T21:50:04.420Z,8.70
2019-02-10T21:52:37.800Z,8.64
2019-02-10T21:55:09.709Z,8.70
2019-02-10T21:57:43.020Z,8.62
2019-02-10T22:00:14.508Z,8.64
2019-02-10T22:02:45.207Z,8.58
2019-02-10T22:05:15.852Z,8.52
2019-02-10T22:07:46.478Z,8.46
2019-02-10T22:10:17.090Z,8.36
2019-02-10T22:12:47.632Z,8.36
2019-02-10T22:15:18.250Z,8.40
2019-02-10T22:17:48.987Z,8.37
2019-02-10T22:20:19.521Z,8.40
2019-02-10T22:22:50.150Z,8.22
2019-02-10T22:25:20.417Z,8.24
2019-02-10T22:27:51.138Z,8.17
2019-02-10T22:30:21.754Z,8.27
2019-02-10T22:32:52.559Z,8.23
2019-02-10T22:35:23.206Z,8.31
2019-02-10T22:37:53.928Z,8.34
2019-02-10T22:40:24.454Z,8.34
2019-02-10T22:42:55.098Z,8.25
2019-02-10T22:45:25.739Z,8.30
2019-02-10T22:47:56.405Z,8.08
2019-02-10T22:50:26.709Z,8.20
2019-02-10T22:52:57.325Z,8.35
2019-02-10T22:55:27.999Z,8.36
2019-02-10T22:58:00.255Z,8.28
2019-02-10T23:00:49.661Z,8.32
2019-02-10T23:03:20.823Z,8.28
2019-02-10T23:05:51.049Z,8.32
2019-02-10T23:08:21.359Z,8.33
2019-02-10T23:10:52.082Z,8.28
2019-02-10T23:13:22.759Z,8.22
2019-02-10T23:15:53.293Z,8.17
2019-02-10T23:18:24.011Z,8.15
2019-02-10T23:20:54.539Z,8.20
2019-02-10T23:23:25.067Z,8.17
2019-02-10T23:25:55.606Z,8.08
2019-02-10T23:28:26.336Z,8.02
2019-02-10T23:30:58.371Z,7.97
2019-02-10T23:33:28.938Z,7.86
2019-02-10T23:35:59.458Z,7.77
2019-02-10T23:38:29.739Z,7.60
2019-02-10T23:41:00.313Z,7.56
2019-02-10T23:43:30.943Z,7.50
2019-02-10T23:46:01.177Z,7.39
2019-02-10T23:48:31.691Z,7.28
2019-02-10T23:51:01.891Z,7.17
2019-02-10T23:53:32.222Z,7.09
2019-02-10T23:56:02.860Z,7.04
2019-02-10T23:58:33.393Z,7.09
